sensor_id;sensor_type;location;lat;lon;timestamp;pressure;altitude;pressure_sealevel;temperature;humidity
59789;BME280;47353;51.614;5.530;2023-03-14T00:00:37;98857.81;;;11.34;86.33
59789;BME280;47353;51.614;5.530;2023-03-14T00:03:02;98854.59;;;11.24;86.17
59789;BME280;47353;51.614;5.530;2023-03-14T00:05:28;98857.16;;;11.29;84.80
59789;BME280;47353;51.614;5.530;2023-03-14T00:07:53;98866.00;;;11.22;85.05
59789;BME280;47353;51.614;5.530;2023-03-14T00:10:19;98855.06;;;11.26;83.81
59789;BME280;47353;51.614;5.530;2023-03-14T00:12:45;98870.38;;;11.32;82.29
59789;BME280;47353;51.614;5.530;2023-03-14T00:15:11;98861.41;;;11.35;81.32
59789;BME280;47353;51.614;5.530;2023-03-14T00:17:37;98859.47;;;11.18;81.75
59789;BME280;47353;51.614;5.530;2023-03-14T00:20:04;98864.22;;;11.18;81.62
59789;BME280;47353;51.614;5.530;2023-03-14T00:22:37;98869.75;;;11.18;80.80
59789;BME280;47353;51.614;5.530;2023-03-14T00:25:05;98874.63;;;11.21;80.02
59789;BME280;47353;51.614;5.530;2023-03-14T00:27:31;98861.94;;;11.11;79.98
59789;BME280;47353;51.614;5.530;2023-03-14T00:29:57;98871.69;;;11.09;80.08
59789;BME280;47353;51.614;5.530;2023-03-14T00:32:22;98865.03;;;11.10;79.76
59789;BME280;47353;51.614;5.530;2023-03-14T00:34:48;98885.06;;;10.98;80.02
59789;BME280;47353;51.614;5.530;2023-03-14T00:37:14;98893.38;;;10.98;80.01
59789;BME280;47353;51.614;5.530;2023-03-14T00:39:39;98883.47;;;10.80;80.79
59789;BME280;47353;51.614;5.530;2023-03-14T00:42:05;98896.00;;;10.86;79.75
59789;BME280;47353;51.614;5.530;2023-03-14T00:44:30;98885.72;;;10.78;79.95
59789;BME280;47353;51.614;5.530;2023-03-14T00:46:57;98887.84;;;10.81;79.33
59789;BME280;47353;51.614;5.530;2023-03-14T00:49:22;98899.09;;;10.76;79.36
59789;BME280;47353;51.614;5.530;2023-03-14T00:51:47;98897.47;;;10.84;78.22
59789;BME280;47353;51.614;5.530;2023-03-14T00:54:13;98903.97;;;10.79;78.38
59789;BME280;47353;51.614;5.530;2023-03-14T00:56:38;98889.81;;;10.81;78.35
59789;BME280;47353;51.614;5.530;2023-03-14T00:59:04;98902.34;;;10.78;78.71
59789;BME280;47353;51.614;5.530;2023-03-14T01:01:29;98890.78;;;10.85;77.65
59789;BME280;47353;51.614;5.530;2023-03-14T01:03:55;98895.69;;;10.79;78.52
59789;BME280;47353;51.614;5.530;2023-03-14T01:06:26;98893.22;;;10.86;78.11
59789;BME280;47353;51.614;5.530;2023-03-14T01:08:51;98887.69;;;10.86;78.02
59789;BME280;47353;51.614;5.530;2023-03-14T01:11:19;98893.69;;;10.80;78.43
59789;BME280;47353;51.614;5.530;2023-03-14T01:13:46;98896.31;;;10.76;78.62
59789;BME280;47353;51.614;5.530;2023-03-14T01:16:12;98884.91;;;10.69;79.04
59789;BME280;47353;51.614;5.530;2023-03-14T01:18:41;98881.34;;;10.69;79.38
59789;BME280;47353;51.614;5.530;2023-03-14T01:21:18;98870.41;;;10.55;80.13
59789;BME280;47353;51.614;5.530;2023-03-14T01:23:45;98883.09;;;10.48;80.51
59789;BME280;47353;51.614;5.530;2023-03-14T01:26:13;98871.53;;;10.46;80.74
59789;BME280;47353;51.614;5.530;2023-03-14T01:28:39;98883.94;;;10.57;79.68
59789;BME280;47353;51.614;5.530;2023-03-14T01:31:06;98857.25;;;10.61;78.92
59789;BME280;47353;51.614;5.530;2023-03-14T01:33:32;98865.56;;;10.61;78.89
59789;BME280;47353;51.614;5.530;2023-03-14T01:35:58;98851.88;;;10.56;78.33
59789;BME280;47353;51.614;5.530;2023-03-14T01:38:23;98861.00;;;10.65;78.17
59789;BME280;47353;51.614;5.530;2023-03-14T01:40:49;98854.63;;;10.64;78.29
59789;BME280;47353;51.614;5.530;2023-03-14T01:43:16;98854.16;;;10.62;78.78
59789;BME280;47353;51.614;5.530;2023-03-14T01:48:42;98840.19;;;10.50;79.58
59789;BME280;47353;51.614;5.530;2023-03-14T01:51:17;98839.34;;;10.50;79.79
59789;BME280;47353;51.614;5.530;2023-03-14T01:53:46;98833.81;;;10.50;79.34
59789;BME280;47353;51.614;5.530;2023-03-14T01:56:14;98834.28;;;10.43;79.72
59789;BME280;47353;51.614;5.530;2023-03-14T01:58:43;98832.69;;;10.42;80.19
59789;BME280;47353;51.614;5.530;2023-03-14T02:01:11;98835.28;;;10.39;81.45
59789;BME280;47353;51.614;5.530;2023-03-14T02:03:45;98839.00;;;10.34;82.30
59789;BME280;47353;51.614;5.530;2023-03-14T02:06:14;98824.66;;;10.15;83.29
59789;BME280;47353;51.614;5.530;2023-03-14T02:08:42;98821.09;;;10.23;83.13
59789;BME280;47353;51.614;5.530;2023-03-14T02:11:12;98825.34;;;10.21;83.27
59789;BME280;47353;51.614;5.530;2023-03-14T02:13:38;98824.03;;;10.18;83.44
59789;BME280;47353;51.614;5.530;2023-03-14T02:16:04;98829.06;;;10.25;83.09
59789;BME280;47353;51.614;5.530;2023-03-14T02:18:29;98827.63;;;10.27;82.70
59789;BME280;47353;51.614;5.530;2023-03-14T02:21:14;98830.88;;;10.21;84.07
59789;BME280;47353;51.614;5.530;2023-03-14T02:23:51;98828.06;;;10.12;85.30
59789;BME280;47353;51.614;5.530;2023-03-14T02:28:47;98823.06;;;9.75;87.42
59789;BME280;47353;51.614;5.530;2023-03-14T02:31:14;98813.00;;;9.70;88.35
59789;BME280;47353;51.614;5.530;2023-03-14T02:33:40;98816.94;;;9.86;87.72
59789;BME280;47353;51.614;5.530;2023-03-14T02:36:07;98803.16;;;10.03;86.28
59789;BME280;47353;51.614;5.530;2023-03-14T02:38:51;98792.75;;;10.00;86.47
59789;BME280;47353;51.614;5.530;2023-03-14T02:41:18;98806.25;;;10.02;86.19
59789;BME280;47353;51.614;5.530;2023-03-14T02:43:43;98807.56;;;10.04;85.82
59789;BME280;47353;51.614;5.530;2023-03-14T02:46:14;98804.47;;;9.97;86.14
59789;BME280;47353;51.614;5.530;2023-03-14T02:48:49;98810.78;;;9.98;85.91
59789;BME280;47353;51.614;5.530;2023-03-14T02:51:16;98813.88;;;9.96;86.57
59789;BME280;47353;51.614;5.530;2023-03-14T02:53:41;98807.88;;;10.03;85.52
59789;BME280;47353;51.614;5.530;2023-03-14T02:56:09;98809.38;;;10.09;85.70
59789;BME280;47353;51.614;5.530;2023-03-14T02:58:34;98811.66;;;10.16;85.36
59789;BME280;47353;51.614;5.530;2023-03-14T03:01:00;98806.47;;;10.14;85.48
59789;BME280;47353;51.614;5.530;2023-03-14T03:03:25;98803.06;;;10.17;85.28
59789;BME280;47353;51.614;5.530;2023-03-14T03:05:53;98803.88;;;10.18;85.42
59789;BME280;47353;51.614;5.530;2023-03-14T03:08:19;98806.97;;;10.16;85.60
59789;BME280;47353;51.614;5.530;2023-03-14T03:10:45;98814.75;;;10.14;85.86
59789;BME280;47353;51.614;5.530;2023-03-14T03:13:10;98808.91;;;10.16;85.53
59789;BME280;47353;51.614;5.530;2023-03-14T03:15:36;98806.47;;;10.14;85.58
59789;BME280;47353;51.614;5.530;2023-03-14T03:18:02;98818.34;;;10.15;85.96
59789;BME280;47353;51.614;5.530;2023-03-14T03:20:27;98816.03;;;10.17;85.94
59789;BME280;47353;51.614;5.530;2023-03-14T03:22:53;98814.44;;;10.16;85.94
59789;BME280;47353;51.614;5.530;2023-03-14T03:25:18;98807.94;;;10.20;85.55
59789;BME280;47353;51.614;5.530;2023-03-14T03:27:43;98802.72;;;10.19;85.51
59789;BME280;47353;51.614;5.530;2023-03-14T03:30:10;98803.03;;;10.26;85.18
59789;BME280;47353;51.614;5.530;2023-03-14T03:32:35;98795.41;;;10.23;85.38
59789;BME280;47353;51.614;5.530;2023-03-14T03:35:04;98804.66;;;10.18;85.66
59789;BME280;47353;51.614;5.530;2023-03-14T03:37:31;98770.69;;;10.09;85.61
59789;BME280;47353;51.614;5.530;2023-03-14T03:39:57;98803.38;;;10.24;85.26
59789;BME280;47353;51.614;5.530;2023-03-14T03:42:22;98798.97;;;10.23;85.04
59789;BME280;47353;51.614;5.530;2023-03-14T03:44:47;98793.28;;;10.20;85.33
59789;BME280;47353;51.614;5.530;2023-03-14T03:47:13;98798.34;;;10.18;85.26
59789;BME280;47353;51.614;5.530;2023-03-14T03:49:39;98790.69;;;10.15;85.48
59789;BME280;47353;51.614;5.530;2023-03-14T03:52:04;98785.97;;;10.15;85.42
59789;BME280;47353;51.614;5.530;2023-03-14T03:54:29;98772.31;;;10.10;85.46
59789;BME280;47353;51.614;5.530;2023-03-14T03:56:55;98778.31;;;10.12;85.43
59789;BME280;47353;51.614;5.530;2023-03-14T03:59:21;98782.41;;;10.15;84.87
59789;BME280;47353;51.614;5.530;2023-03-14T04:01:46;98783.84;;;10.12;85.07
59789;BME280;47353;51.614;5.530;2023-03-14T04:04:11;98784.66;;;10.13;85.30
59789;BME280;47353;51.614;5.530;2023-03-14T04:06:37;98779.78;;;10.09;85.30
59789;BME280;47353;51.614;5.530;2023-03-14T04:09:03;98785.94;;;10.06;85.25
59789;BME280;47353;51.614;5.530;2023-03-14T04:11:28;98790.03;;;10.09;85.03
59789;BME280;47353;51.614;5.530;2023-03-14T04:13:54;98787.59;;;10.07;85.52
59789;BME280;47353;51.614;5.530;2023-03-14T04:16:21;98783.50;;;10.05;85.73
59789;BME280;47353;51.614;5.530;2023-03-14T04:18:47;98787.22;;;10.00;86.49
59789;BME280;47353;51.614;5.530;2023-03-14T04:21:13;98778.44;;;9.98;87.16
59789;BME280;47353;51.614;5.530;2023-03-14T04:23:38;98774.53;;;9.91;87.85
59789;BME280;47353;51.614;5.530;2023-03-14T04:26:04;98781.84;;;9.87;88.60
59789;BME280;47353;51.614;5.530;2023-03-14T04:28:29;98769.47;;;9.76;90.05
59789;BME280;47353;51.614;5.530;2023-03-14T04:30:55;98773.19;;;9.80;89.25
59789;BME280;47353;51.614;5.530;2023-03-14T04:33:20;98774.00;;;9.72;89.80
59789;BME280;47353;51.614;5.530;2023-03-14T04:35:46;98773.53;;;9.78;89.03
59789;BME280;47353;51.614;5.530;2023-03-14T04:38:12;98773.53;;;9.78;88.67
59789;BME280;47353;51.614;5.530;2023-03-14T04:40:39;98768.81;;;9.79;89.01
59789;BME280;47353;51.614;5.530;2023-03-14T04:43:05;98769.94;;;9.78;89.13
59789;BME280;47353;51.614;5.530;2023-03-14T04:45:31;98758.88;;;9.78;89.27
59789;BME280;47353;51.614;5.530;2023-03-14T04:47:56;98754.84;;;9.84;89.66
59789;BME280;47353;51.614;5.530;2023-03-14T04:50:22;98766.84;;;9.79;90.17
59789;BME280;47353;51.614;5.530;2023-03-14T04:52:47;98757.13;;;9.82;91.73
59789;BME280;47353;51.614;5.530;2023-03-14T04:55:13;98762.75;;;9.60;93.27
59789;BME280;47353;51.614;5.530;2023-03-14T04:57:38;98766.16;;;9.48;94.79
59789;BME280;47353;51.614;5.530;2023-03-14T05:00:05;98767.75;;;9.49;95.45
59789;BME280;47353;51.614;5.530;2023-03-14T05:02:31;98769.03;;;9.43;96.50
59789;BME280;47353;51.614;5.530;2023-03-14T05:04:57;98775.03;;;9.37;98.30
59789;BME280;47353;51.614;5.530;2023-03-14T05:07:22;98775.97;;;9.32;99.80
59789;BME280;47353;51.614;5.530;2023-03-14T05:09:47;98775.78;;;9.20;100.00
59789;BME280;47353;51.614;5.530;2023-03-14T05:12:13;98775.63;;;8.95;100.00
59789;BME280;47353;51.614;5.530;2023-03-14T05:14:38;98777.66;;;8.81;100.00
59789;BME280;47353;51.614;5.530;2023-03-14T05:17:04;98772.22;;;8.67;100.00
59789;BME280;47353;51.614;5.530;2023-03-14T05:19:30;98764.69;;;8.59;100.00
59789;BME280;47353;51.614;5.530;2023-03-14T05:21:55;98766.16;;;8.57;100.00
59789;BME280;47353;51.614;5.530;2023-03-14T05:24:21;98763.84;;;8.50;100.00
59789;BME280;47353;51.614;5.530;2023-03-14T05:26:46;98756.63;;;8.40;100.00
59789;BME280;47353;51.614;5.530;2023-03-14T05:29:11;98758.06;;;8.38;100.00
59789;BME280;47353;51.614;5.530;2023-03-14T05:31:37;98753.50;;;8.33;100.00
59789;BME280;47353;51.614;5.530;2023-03-14T05:34:02;98746.69;;;8.31;100.00
59789;BME280;47353;51.614;5.530;2023-03-14T05:36:28;98755.63;;;8.36;100.00
59789;BME280;47353;51.614;5.530;2023-03-14T05:38:53;98758.19;;;8.33;100.00
59789;BME280;47353;51.614;5.530;2023-03-14T05:41:19;98749.13;;;8.32;100.00
59789;BME280;47353;51.614;5.530;2023-03-14T05:43:44;98750.22;;;8.31;100.00
59789;BME280;47353;51.614;5.530;2023-03-14T05:46:09;98743.09;;;8.30;100.00
59789;BME280;47353;51.614;5.530;2023-03-14T05:48:35;98742.66;;;8.37;100.00
59789;BME280;47353;51.614;5.530;2023-03-14T05:51:00;98739.28;;;8.40;100.00
59789;BME280;47353;51.614;5.530;2023-03-14T05:53:26;98726.56;;;8.30;100.00
59789;BME280;47353;51.614;5.530;2023-03-14T05:55:52;98725.94;;;8.33;100.00
59789;BME280;47353;51.614;5.530;2023-03-14T05:58:18;98732.59;;;8.32;100.00
59789;BME280;47353;51.614;5.530;2023-03-14T06:00:43;98723.38;;;8.37;100.00
59789;BME280;47353;51.614;5.530;2023-03-14T06:03:09;98724.88;;;8.43;100.00
59789;BME280;47353;51.614;5.530;2023-03-14T06:05:34;98712.03;;;8.38;100.00
59789;BME280;47353;51.614;5.530;2023-03-14T06:07:59;98722.75;;;8.40;100.00
59789;BME280;47353;51.614;5.530;2023-03-14T06:10:28;98725.19;;;8.41;100.00
59789;BME280;47353;51.614;5.530;2023-03-14T06:12:53;98728.81;;;8.51;100.00
59789;BME280;47353;51.614;5.530;2023-03-14T06:15:18;98731.38;;;8.47;100.00
59789;BME280;47353;51.614;5.530;2023-03-14T06:17:44;98726.25;;;8.54;100.00
59789;BME280;47353;51.614;5.530;2023-03-14T06:20:10;98731.94;;;8.58;100.00
59789;BME280;47353;51.614;5.530;2023-03-14T06:22:36;98733.88;;;8.57;100.00
59789;BME280;47353;51.614;5.530;2023-03-14T06:25:01;98736.00;;;8.60;100.00
59789;BME280;47353;51.614;5.530;2023-03-14T06:27:26;98726.09;;;8.59;100.00
59789;BME280;47353;51.614;5.530;2023-03-14T06:29:52;98729.75;;;8.68;100.00
59789;BME280;47353;51.614;5.530;2023-03-14T06:32:17;98728.41;;;8.66;100.00
59789;BME280;47353;51.614;5.530;2023-03-14T06:34:43;98743.53;;;8.68;100.00
59789;BME280;47353;51.614;5.530;2023-03-14T06:37:09;98721.94;;;8.70;100.00
59789;BME280;47353;51.614;5.530;2023-03-14T06:39:34;98743.38;;;8.73;100.00
59789;BME280;47353;51.614;5.530;2023-03-14T06:42:00;98753.34;;;8.83;100.00
59789;BME280;47353;51.614;5.530;2023-03-14T06:44:25;98750.78;;;8.86;100.00
59789;BME280;47353;51.614;5.530;2023-03-14T06:46:50;98753.03;;;8.84;100.00
59789;BME280;47353;51.614;5.530;2023-03-14T06:49:16;98747.19;;;8.86;100.00
59789;BME280;47353;51.614;5.530;2023-03-14T06:51:41;98757.44;;;8.85;100.00
59789;BME280;47353;51.614;5.530;2023-03-14T06:54:06;98750.63;;;8.91;100.00
59789;BME280;47353;51.614;5.530;2023-03-14T06:56:32;98758.13;;;8.99;100.00
59789;BME280;47353;51.614;5.530;2023-03-14T06:58:57;98759.94;;;9.04;100.00
59789;BME280;47353;51.614;5.530;2023-03-14T07:01:26;98754.25;;;9.00;100.00
59789;BME280;47353;51.614;5.530;2023-03-14T07:03:51;98766.59;;;9.03;100.00
59789;BME280;47353;51.614;5.530;2023-03-14T07:06:17;98759.63;;;9.05;100.00
59789;BME280;47353;51.614;5.530;2023-03-14T07:08:42;98759.44;;;9.02;100.00
59789;BME280;47353;51.614;5.530;2023-03-14T07:11:08;98768.03;;;9.00;100.00
59789;BME280;47353;51.614;5.530;2023-03-14T07:13:36;98769.16;;;8.99;100.00
59789;BME280;47353;51.614;5.530;2023-03-14T07:16:02;98770.94;;;8.95;100.00
59789;BME280;47353;51.614;5.530;2023-03-14T07:18:27;98773.03;;;8.90;100.00
59789;BME280;47353;51.614;5.530;2023-03-14T07:20:53;98771.53;;;8.84;100.00
59789;BME280;47353;51.614;5.530;2023-03-14T07:23:18;98777.84;;;8.84;100.00
59789;BME280;47353;51.614;5.530;2023-03-14T07:25:43;98809.34;;;8.83;100.00
59789;BME280;47353;51.614;5.530;2023-03-14T07:28:09;98862.50;;;8.75;100.00
59789;BME280;47353;51.614;5.530;2023-03-14T07:30:34;98872.53;;;8.35;100.00
59789;BME280;47353;51.614;5.530;2023-03-14T07:33:00;98874.28;;;8.04;100.00
59789;BME280;47353;51.614;5.530;2023-03-14T07:35:25;98898.91;;;7.87;100.00
59789;BME280;47353;51.614;5.530;2023-03-14T07:37:50;98899.50;;;7.84;100.00
59789;BME280;47353;51.614;5.530;2023-03-14T07:40:16;98907.78;;;7.84;100.00
59789;BME280;47353;51.614;5.530;2023-03-14T07:42:42;98921.03;;;7.82;100.00
59789;BME280;47353;51.614;5.530;2023-03-14T07:45:09;98935.00;;;7.72;100.00
59789;BME280;47353;51.614;5.530;2023-03-14T07:47:35;98942.22;;;7.68;100.00
59789;BME280;47353;51.614;5.530;2023-03-14T07:50:01;98952.13;;;7.69;100.00
59789;BME280;47353;51.614;5.530;2023-03-14T07:52:26;98953.97;;;7.60;100.00
59789;BME280;47353;51.614;5.530;2023-03-14T07:54:52;98972.78;;;7.53;100.00
59789;BME280;47353;51.614;5.530;2023-03-14T07:57:17;98981.28;;;7.57;100.00
59789;BME280;47353;51.614;5.530;2023-03-14T07:59:42;98972.09;;;7.61;100.00
59789;BME280;47353;51.614;5.530;2023-03-14T08:02:11;98976.47;;;7.62;100.00
59789;BME280;47353;51.614;5.530;2023-03-14T08:04:39;98989.22;;;7.58;100.00
59789;BME280;47353;51.614;5.530;2023-03-14T08:07:05;99004.84;;;7.63;100.00
59789;BME280;47353;51.614;5.530;2023-03-14T08:09:30;99000.75;;;7.60;100.00
59789;BME280;47353;51.614;5.530;2023-03-14T08:11:55;99019.44;;;7.63;100.00
59789;BME280;47353;51.614;5.530;2023-03-14T08:14:29;99025.03;;;7.58;100.00
59789;BME280;47353;51.614;5.530;2023-03-14T08:16:56;99025.94;;;7.54;100.00
59789;BME280;47353;51.614;5.530;2023-03-14T08:19:21;99037.72;;;7.54;100.00
59789;BME280;47353;51.614;5.530;2023-03-14T08:21:47;99057.69;;;7.65;100.00
59789;BME280;47353;51.614;5.530;2023-03-14T08:24:12;99059.22;;;7.71;100.00
59789;BME280;47353;51.614;5.530;2023-03-14T08:26:37;99064.75;;;7.84;100.00
59789;BME280;47353;51.614;5.530;2023-03-14T08:29:03;99081.25;;;8.03;100.00
59789;BME280;47353;51.614;5.530;2023-03-14T08:31:30;99090.09;;;8.32;100.00
59789;BME280;47353;51.614;5.530;2023-03-14T08:33:58;99092.75;;;8.51;100.00
59789;BME280;47353;51.614;5.530;2023-03-14T08:36:24;99105.13;;;8.67;100.00
59789;BME280;47353;51.614;5.530;2023-03-14T08:38:49;99106.84;;;8.63;100.00
59789;BME280;47353;51.614;5.530;2023-03-14T08:41:14;99121.69;;;8.67;100.00
59789;BME280;47353;51.614;5.530;2023-03-14T08:43:40;99128.41;;;8.74;100.00
59789;BME280;47353;51.614;5.530;2023-03-14T08:46:05;99139.53;;;8.83;100.00
59789;BME280;47353;51.614;5.530;2023-03-14T08:48:31;99148.22;;;8.63;100.00
59789;BME280;47353;51.614;5.530;2023-03-14T08:51:01;99154.88;;;8.62;100.00
59789;BME280;47353;51.614;5.530;2023-03-14T08:53:28;99160.47;;;8.57;100.00
59789;BME280;47353;51.614;5.530;2023-03-14T08:55:54;99168.13;;;8.46;100.00
59789;BME280;47353;51.614;5.530;2023-03-14T08:58:19;99173.72;;;8.41;100.00
59789;BME280;47353;51.614;5.530;2023-03-14T09:00:45;99182.59;;;8.38;100.00
59789;BME280;47353;51.614;5.530;2023-03-14T09:03:10;99194.91;;;8.27;100.00
59789;BME280;47353;51.614;5.530;2023-03-14T09:05:35;99200.97;;;8.29;100.00
59789;BME280;47353;51.614;5.530;2023-03-14T09:08:01;99203.78;;;8.05;100.00
59789;BME280;47353;51.614;5.530;2023-03-14T09:10:27;99215.88;;;8.09;100.00
59789;BME280;47353;51.614;5.530;2023-03-14T09:12:52;99230.44;;;8.10;100.00
59789;BME280;47353;51.614;5.530;2023-03-14T09:15:18;99244.09;;;8.01;100.00
59789;BME280;47353;51.614;5.530;2023-03-14T09:17:43;99251.78;;;8.23;100.00
59789;BME280;47353;51.614;5.530;2023-03-14T09:20:11;99256.91;;;8.29;100.00
59789;BME280;47353;51.614;5.530;2023-03-14T09:22:36;99260.91;;;8.37;100.00
59789;BME280;47353;51.614;5.530;2023-03-14T09:25:05;99272.75;;;8.37;100.00
59789;BME280;47353;51.614;5.530;2023-03-14T09:27:31;99293.78;;;8.33;100.00
59789;BME280;47353;51.614;5.530;2023-03-14T09:29:56;99310.47;;;8.23;100.00
59789;BME280;47353;51.614;5.530;2023-03-14T09:32:22;99333.94;;;7.97;100.00
59789;BME280;47353;51.614;5.530;2023-03-14T09:34:47;99349.16;;;7.71;100.00
59789;BME280;47353;51.614;5.530;2023-03-14T09:37:12;99357.91;;;7.55;100.00
59789;BME280;47353;51.614;5.530;2023-03-14T09:39:38;99370.09;;;7.49;100.00
59789;BME280;47353;51.614;5.530;2023-03-14T09:42:06;99377.81;;;7.47;100.00
59789;BME280;47353;51.614;5.530;2023-03-14T09:44:36;99380.06;;;7.45;100.00
59789;BME280;47353;51.614;5.530;2023-03-14T09:47:06;99397.13;;;7.70;100.00
59789;BME280;47353;51.614;5.530;2023-03-14T09:49:34;99410.88;;;7.94;100.00
59789;BME280;47353;51.614;5.530;2023-03-14T09:52:06;99413.38;;;8.14;100.00
59789;BME280;47353;51.614;5.530;2023-03-14T09:54:43;99434.00;;;8.40;98.96
59789;BME280;47353;51.614;5.530;2023-03-14T09:57:23;99442.41;;;8.86;97.15
59789;BME280;47353;51.614;5.530;2023-03-14T09:59:50;99455.19;;;9.32;93.63
59789;BME280;47353;51.614;5.530;2023-03-14T10:02:19;99469.50;;;9.34;91.22
59789;BME280;47353;51.614;5.530;2023-03-14T10:04:47;99472.28;;;9.34;89.32
59789;BME280;47353;51.614;5.530;2023-03-14T10:07:14;99487.03;;;9.43;90.39
59789;BME280;47353;51.614;5.530;2023-03-14T10:09:43;99496.59;;;9.78;89.81
59789;BME280;47353;51.614;5.530;2023-03-14T10:12:09;99518.72;;;10.10;87.04
59789;BME280;47353;51.614;5.530;2023-03-14T10:14:37;99522.16;;;10.02;85.34
59789;BME280;47353;51.614;5.530;2023-03-14T10:17:13;99540.75;;;9.83;84.96
59789;BME280;47353;51.614;5.530;2023-03-14T10:19:52;99548.63;;;9.76;85.08
59789;BME280;47353;51.614;5.530;2023-03-14T10:22:18;99567.78;;;9.54;85.10
59789;BME280;47353;51.614;5.530;2023-03-14T10:24:46;99582.31;;;9.41;83.96
59789;BME280;47353;51.614;5.530;2023-03-14T10:27:20;99585.19;;;9.36;84.45
59789;BME280;47353;51.614;5.530;2023-03-14T10:29:58;99600.25;;;9.25;83.78
59789;BME280;47353;51.614;5.530;2023-03-14T10:32:35;99614.03;;;8.88;84.24
59789;BME280;47353;51.614;5.530;2023-03-14T10:37:56;99635.50;;;8.91;85.43
59789;BME280;47353;51.614;5.530;2023-03-14T10:40:31;99644.47;;;9.01;84.54
59789;BME280;47353;51.614;5.530;2023-03-14T10:42:59;99654.19;;;9.17;84.03
59789;BME280;47353;51.614;5.530;2023-03-14T10:47:53;99666.88;;;10.11;80.88
59789;BME280;47353;51.614;5.530;2023-03-14T10:50:30;99671.31;;;10.98;77.76
59789;BME280;47353;51.614;5.530;2023-03-14T10:52:57;99687.97;;;11.47;74.47
59789;BME280;47353;51.614;5.530;2023-03-14T10:55:24;99691.69;;;11.70;72.43
59789;BME280;47353;51.614;5.530;2023-03-14T10:57:50;99711.66;;;11.81;70.62
59789;BME280;47353;51.614;5.530;2023-03-14T11:00:19;99710.03;;;11.66;69.07
59789;BME280;47353;51.614;5.530;2023-03-14T11:08:04;99745.41;;;13.54;62.44
59789;BME280;47353;51.614;5.530;2023-03-14T11:10:35;99742.91;;;13.05;63.00
59789;BME280;47353;51.614;5.530;2023-03-14T11:13:15;99761.94;;;12.37;63.24
59789;BME280;47353;51.614;5.530;2023-03-14T11:18:44;99783.56;;;10.77;70.75
59789;BME280;47353;51.614;5.530;2023-03-14T11:27:00;99835.19;;;9.52;75.73
59789;BME280;47353;51.614;5.530;2023-03-14T11:32:52;99838.09;;;9.13;77.04
59789;BME280;47353;51.614;5.530;2023-03-14T11:35:28;99851.47;;;9.01;75.42
59789;BME280;47353;51.614;5.530;2023-03-14T11:40:34;99868.94;;;8.92;76.49
59789;BME280;47353;51.614;5.530;2023-03-14T11:45:37;99872.97;;;9.33;76.12
59789;BME280;47353;51.614;5.530;2023-03-14T11:50:49;99887.88;;;10.26;73.35
59789;BME280;47353;51.614;5.530;2023-03-14T11:55:46;99892.25;;;11.47;68.32
59789;BME280;47353;51.614;5.530;2023-03-14T11:58:17;99912.78;;;11.59;66.21
59789;BME280;47353;51.614;5.530;2023-03-14T12:00:45;99921.94;;;10.96;67.36
59789;BME280;47353;51.614;5.530;2023-03-14T12:03:26;99946.72;;;10.08;71.07
59789;BME280;47353;51.614;5.530;2023-03-14T12:06:20;99951.50;;;9.22;73.31
59789;BME280;47353;51.614;5.530;2023-03-14T12:08:50;99951.66;;;8.68;75.69
59789;BME280;47353;51.614;5.530;2023-03-14T12:11:37;99958.03;;;8.59;77.22
59789;BME280;47353;51.614;5.530;2023-03-14T12:16:45;99971.31;;;8.52;77.71
59789;BME280;47353;51.614;5.530;2023-03-14T12:19:32;99975.72;;;8.96;77.48
59789;BME280;47353;51.614;5.530;2023-03-14T12:22:13;99967.44;;;10.90;75.97
59789;BME280;47353;51.614;5.530;2023-03-14T12:25:04;99983.44;;;13.19;68.87
59789;BME280;47353;51.614;5.530;2023-03-14T12:30:32;99990.34;;;15.09;60.62
59789;BME280;47353;51.614;5.530;2023-03-14T12:35:40;100006.53;;;16.76;49.88
59789;BME280;47353;51.614;5.530;2023-03-14T12:38:13;99997.69;;;17.15;48.69
59789;BME280;47353;51.614;5.530;2023-03-14T12:43:41;100018.47;;;20.12;38.56
59789;BME280;47353;51.614;5.530;2023-03-14T12:48:39;100025.19;;;21.51;36.57
59789;BME280;47353;51.614;5.530;2023-03-14T12:56:31;100027.41;;;23.34;29.73
59789;BME280;47353;51.614;5.530;2023-03-14T12:59:21;100036.81;;;22.25;31.69
59789;BME280;47353;51.614;5.530;2023-03-14T13:02:00;100042.50;;;21.33;32.89
59789;BME280;47353;51.614;5.530;2023-03-14T13:04:29;100050.56;;;19.83;31.80
59789;BME280;47353;51.614;5.530;2023-03-14T13:06:58;100060.72;;;19.48;31.97
59789;BME280;47353;51.614;5.530;2023-03-14T13:11:53;100070.56;;;17.39;35.42
59789;BME280;47353;51.614;5.530;2023-03-14T13:14:19;100079.75;;;19.03;34.87
59789;BME280;47353;51.614;5.530;2023-03-14T13:16:46;100080.84;;;18.42;32.49
59789;BME280;47353;51.614;5.530;2023-03-14T13:19:25;100087.91;;;18.72;34.91
59789;BME280;47353;51.614;5.530;2023-03-14T13:22:01;100093.31;;;21.06;30.87
59789;BME280;47353;51.614;5.530;2023-03-14T13:24:27;100100.34;;;23.06;28.10
59789;BME280;47353;51.614;5.530;2023-03-14T13:26:56;100112.78;;;23.76;25.78
59789;BME280;47353;51.614;5.530;2023-03-14T13:29:25;100127.78;;;23.54;24.21
59789;BME280;47353;51.614;5.530;2023-03-14T13:32:12;100117.34;;;23.32;27.05
59789;BME280;47353;51.614;5.530;2023-03-14T13:34:38;100126.75;;;23.95;23.40
59789;BME280;47353;51.614;5.530;2023-03-14T13:37:04;100135.44;;;24.72;22.10
59789;BME280;47353;51.614;5.530;2023-03-14T13:39:31;100126.81;;;25.02;21.39
59789;BME280;47353;51.614;5.530;2023-03-14T13:41:59;100127.06;;;25.87;20.77
59789;BME280;47353;51.614;5.530;2023-03-14T13:46:58;100142.66;;;25.53;21.69
59789;BME280;47353;51.614;5.530;2023-03-14T13:49:25;100149.63;;;26.35;20.41
59789;BME280;47353;51.614;5.530;2023-03-14T13:51:51;100151.91;;;26.08;19.85
59789;BME280;47353;51.614;5.530;2023-03-14T13:54:18;100167.59;;;25.91;20.17
59789;BME280;47353;51.614;5.530;2023-03-14T13:56:46;100170.59;;;25.11;20.43
59789;BME280;47353;51.614;5.530;2023-03-14T13:59:28;100173.13;;;26.32;22.19
59789;BME280;47353;51.614;5.530;2023-03-14T14:01:55;100191.44;;;26.48;19.74
59789;BME280;47353;51.614;5.530;2023-03-14T14:04:23;100194.72;;;26.54;18.34